Polfry, Mississippi
Current Conditions -  °F | °C
As of 3:58 PM on Friday 24 Oct 2014 (Local Time) from KBIX Reporting Station
Clear Clear  
Wind Chill: 77°   Ceiling: Unl
Heat Index: 78°   Visibility: 10mi
Dew Point: 42°   Wind: 9mph
Humidity: 29%   Direction: 30°NNE
Pressure: 30.01"   Gusts: NA
Location:  30.418°N, 88.7558°W
Report Text: KBIX 242058Z AUTO 03008KT 10SM CLR 25/06 A3001 RMK AO2 SLP165 T02520057 56013
Loading
Personal Weather Stations






























Interactive Weather Map
Tropical Storm Tracking
New forecast layout! Learn more

10-Day Weather Forecast

Advertisements
Track Severe Weather on mobile